sensor_id;sensor_type;location;lat;lon;timestamp;temperature;humidity
73360;DHT22;63092;43.582;19.528;2023-01-15T00:02:05;6.20;99.90
73360;DHT22;63092;43.582;19.528;2023-01-15T00:04:31;6.20;99.90
73360;DHT22;63092;43.582;19.528;2023-01-15T00:06:57;6.20;99.90
73360;DHT22;63092;43.582;19.528;2023-01-15T00:09:23;6.20;99.90
73360;DHT22;63092;43.582;19.528;2023-01-15T00:11:49;6.30;99.90
73360;DHT22;63092;43.582;19.528;2023-01-15T00:14:14;6.30;99.90
73360;DHT22;63092;43.582;19.528;2023-01-15T00:16:40;6.30;99.90
73360;DHT22;63092;43.582;19.528;2023-01-15T00:19:08;6.30;99.90
73360;DHT22;63092;43.582;19.528;2023-01-15T00:21:35;6.30;99.90
73360;DHT22;63092;43.582;19.528;2023-01-15T00:24:01;6.40;99.90
73360;DHT22;63092;43.582;19.528;2023-01-15T00:26:45;6.40;99.90
73360;DHT22;63092;43.582;19.528;2023-01-15T00:29:31;6.40;99.90
73360;DHT22;63092;43.582;19.528;2023-01-15T00:32:02;6.50;99.90
73360;DHT22;63092;43.582;19.528;2023-01-15T00:34:28;6.50;99.90
73360;DHT22;63092;43.582;19.528;2023-01-15T00:36:55;6.50;99.90
73360;DHT22;63092;43.582;19.528;2023-01-15T00:39:21;6.50;99.90
73360;DHT22;63092;43.582;19.528;2023-01-15T00:41:49;6.50;99.90
73360;DHT22;63092;43.582;19.528;2023-01-15T00:44:14;6.50;99.90
73360;DHT22;63092;43.582;19.528;2023-01-15T00:46:40;6.30;99.90
73360;DHT22;63092;43.582;19.528;2023-01-15T00:49:07;6.40;99.90
73360;DHT22;63092;43.582;19.528;2023-01-15T00:51:33;6.40;99.90
73360;DHT22;63092;43.582;19.528;2023-01-15T00:53:59;6.40;99.90
73360;DHT22;63092;43.582;19.528;2023-01-15T00:56:26;6.50;99.90
73360;DHT22;63092;43.582;19.528;2023-01-15T00:58:53;6.50;99.90
73360;DHT22;63092;43.582;19.528;2023-01-15T01:01:20;6.40;99.90
73360;DHT22;63092;43.582;19.528;2023-01-15T01:03:46;6.40;99.90
73360;DHT22;63092;43.582;19.528;2023-01-15T01:06:15;6.50;99.90
73360;DHT22;63092;43.582;19.528;2023-01-15T01:08:42;6.40;99.90
73360;DHT22;63092;43.582;19.528;2023-01-15T01:11:16;6.40;99.90
73360;DHT22;63092;43.582;19.528;2023-01-15T01:13:43;6.40;99.90
73360;DHT22;63092;43.582;19.528;2023-01-15T01:16:33;6.30;99.90
73360;DHT22;63092;43.582;19.528;2023-01-15T01:19:08;6.30;99.90
73360;DHT22;63092;43.582;19.528;2023-01-15T01:21:36;6.30;99.90
73360;DHT22;63092;43.582;19.528;2023-01-15T01:24:02;6.20;99.90
73360;DHT22;63092;43.582;19.528;2023-01-15T01:26:28;6.20;99.90
73360;DHT22;63092;43.582;19.528;2023-01-15T01:28:55;6.30;99.90
73360;DHT22;63092;43.582;19.528;2023-01-15T01:31:21;6.30;99.90
73360;DHT22;63092;43.582;19.528;2023-01-15T01:33:52;6.30;99.90
73360;DHT22;63092;43.582;19.528;2023-01-15T01:36:19;6.10;99.90
73360;DHT22;63092;43.582;19.528;2023-01-15T01:38:48;6.10;99.90
73360;DHT22;63092;43.582;19.528;2023-01-15T01:41:15;6.00;99.90
73360;DHT22;63092;43.582;19.528;2023-01-15T01:44:07;6.00;99.90
73360;DHT22;63092;43.582;19.528;2023-01-15T01:46:52;6.10;99.90
73360;DHT22;63092;43.582;19.528;2023-01-15T01:49:18;6.20;99.90
73360;DHT22;63092;43.582;19.528;2023-01-15T01:51:49;6.20;99.90
73360;DHT22;63092;43.582;19.528;2023-01-15T01:54:18;6.20;99.90
73360;DHT22;63092;43.582;19.528;2023-01-15T01:56:47;6.30;99.90
73360;DHT22;63092;43.582;19.528;2023-01-15T01:59:15;6.30;99.90
73360;DHT22;63092;43.582;19.528;2023-01-15T02:01:41;6.30;99.90
73360;DHT22;63092;43.582;19.528;2023-01-15T02:04:08;6.30;99.90
73360;DHT22;63092;43.582;19.528;2023-01-15T02:06:39;6.40;99.90
73360;DHT22;63092;43.582;19.528;2023-01-15T02:09:06;6.30;99.90
73360;DHT22;63092;43.582;19.528;2023-01-15T02:11:32;6.30;99.90
73360;DHT22;63092;43.582;19.528;2023-01-15T02:14:29;6.40;99.90
73360;DHT22;63092;43.582;19.528;2023-01-15T02:17:19;6.40;99.90
73360;DHT22;63092;43.582;19.528;2023-01-15T02:19:55;6.40;99.90
73360;DHT22;63092;43.582;19.528;2023-01-15T02:22:36;6.30;99.90
73360;DHT22;63092;43.582;19.528;2023-01-15T02:25:51;6.40;99.90
73360;DHT22;63092;43.582;19.528;2023-01-15T02:30:53;6.10;99.90
73360;DHT22;63092;43.582;19.528;2023-01-15T02:33:27;6.00;99.90
73360;DHT22;63092;43.582;19.528;2023-01-15T02:35:58;6.00;99.90
73360;DHT22;63092;43.582;19.528;2023-01-15T02:38:35;6.00;99.90
73360;DHT22;63092;43.582;19.528;2023-01-15T02:41:03;6.10;99.90
73360;DHT22;63092;43.582;19.528;2023-01-15T02:43:34;6.10;99.90
73360;DHT22;63092;43.582;19.528;2023-01-15T02:46:02;6.20;99.90
73360;DHT22;63092;43.582;19.528;2023-01-15T02:48:31;6.00;99.90
73360;DHT22;63092;43.582;19.528;2023-01-15T02:51:03;5.90;99.90
73360;DHT22;63092;43.582;19.528;2023-01-15T02:53:32;5.70;99.90
73360;DHT22;63092;43.582;19.528;2023-01-15T02:56:08;5.70;99.90
73360;DHT22;63092;43.582;19.528;2023-01-15T02:58:37;5.70;99.90
73360;DHT22;63092;43.582;19.528;2023-01-15T03:01:15;5.80;99.90
73360;DHT22;63092;43.582;19.528;2023-01-15T03:04:11;5.70;99.90
73360;DHT22;63092;43.582;19.528;2023-01-15T03:06:50;5.60;99.90
73360;DHT22;63092;43.582;19.528;2023-01-15T03:09:19;5.70;99.90
73360;DHT22;63092;43.582;19.528;2023-01-15T03:12:01;5.70;99.90
73360;DHT22;63092;43.582;19.528;2023-01-15T03:14:35;5.70;99.90
73360;DHT22;63092;43.582;19.528;2023-01-15T03:17:17;5.70;99.90
73360;DHT22;63092;43.582;19.528;2023-01-15T03:19:52;5.60;99.90
73360;DHT22;63092;43.582;19.528;2023-01-15T03:22:35;5.70;99.90
73360;DHT22;63092;43.582;19.528;2023-01-15T03:25:12;5.70;99.90
73360;DHT22;63092;43.582;19.528;2023-01-15T03:27:41;5.80;99.90
73360;DHT22;63092;43.582;19.528;2023-01-15T03:30:18;5.70;99.90
73360;DHT22;63092;43.582;19.528;2023-01-15T03:32:44;5.70;99.90
73360;DHT22;63092;43.582;19.528;2023-01-15T03:38:08;5.80;99.90
73360;DHT22;63092;43.582;19.528;2023-01-15T03:40:37;5.80;99.90
73360;DHT22;63092;43.582;19.528;2023-01-15T03:43:09;5.80;99.90
73360;DHT22;63092;43.582;19.528;2023-01-15T03:45:58;5.80;99.90
73360;DHT22;63092;43.582;19.528;2023-01-15T03:48:27;5.80;99.90
73360;DHT22;63092;43.582;19.528;2023-01-15T03:51:26;5.70;99.90
73360;DHT22;63092;43.582;19.528;2023-01-15T03:53:58;5.80;99.90
73360;DHT22;63092;43.582;19.528;2023-01-15T03:56:57;5.80;99.90
73360;DHT22;63092;43.582;19.528;2023-01-15T03:59:31;5.90;99.90
73360;DHT22;63092;43.582;19.528;2023-01-15T04:01:59;5.90;99.90
73360;DHT22;63092;43.582;19.528;2023-01-15T04:04:26;5.90;99.90
73360;DHT22;63092;43.582;19.528;2023-01-15T04:06:53;5.90;99.90
73360;DHT22;63092;43.582;19.528;2023-01-15T04:09:20;5.90;99.90
73360;DHT22;63092;43.582;19.528;2023-01-15T04:11:46;5.90;99.90
73360;DHT22;63092;43.582;19.528;2023-01-15T04:14:13;6.00;99.90
73360;DHT22;63092;43.582;19.528;2023-01-15T04:16:39;6.00;99.90
73360;DHT22;63092;43.582;19.528;2023-01-15T04:19:05;6.00;99.90
73360;DHT22;63092;43.582;19.528;2023-01-15T04:21:30;6.00;99.90
73360;DHT22;63092;43.582;19.528;2023-01-15T04:23:56;6.00;99.90
73360;DHT22;63092;43.582;19.528;2023-01-15T04:26:22;5.80;99.90
73360;DHT22;63092;43.582;19.528;2023-01-15T04:28:47;5.90;99.90
73360;DHT22;63092;43.582;19.528;2023-01-15T04:31:14;5.90;99.90
73360;DHT22;63092;43.582;19.528;2023-01-15T04:33:39;5.80;99.90
73360;DHT22;63092;43.582;19.528;2023-01-15T04:36:06;5.80;99.90
73360;DHT22;63092;43.582;19.528;2023-01-15T04:38:33;5.90;99.90
73360;DHT22;63092;43.582;19.528;2023-01-15T04:41:01;5.90;99.90
73360;DHT22;63092;43.582;19.528;2023-01-15T04:43:45;6.00;99.90
73360;DHT22;63092;43.582;19.528;2023-01-15T04:46:30;6.00;99.90
73360;DHT22;63092;43.582;19.528;2023-01-15T04:48:55;6.00;99.90
73360;DHT22;63092;43.582;19.528;2023-01-15T04:51:21;6.10;99.90
73360;DHT22;63092;43.582;19.528;2023-01-15T04:53:46;6.00;99.90
73360;DHT22;63092;43.582;19.528;2023-01-15T04:56:12;6.00;99.90
73360;DHT22;63092;43.582;19.528;2023-01-15T04:58:38;6.10;99.90
73360;DHT22;63092;43.582;19.528;2023-01-15T05:01:13;6.00;99.90
73360;DHT22;63092;43.582;19.528;2023-01-15T05:03:39;6.00;99.90
73360;DHT22;63092;43.582;19.528;2023-01-15T05:06:05;5.90;99.90
73360;DHT22;63092;43.582;19.528;2023-01-15T05:08:30;5.90;99.90
73360;DHT22;63092;43.582;19.528;2023-01-15T05:11:03;5.90;99.90
73360;DHT22;63092;43.582;19.528;2023-01-15T05:13:30;5.90;99.90
73360;DHT22;63092;43.582;19.528;2023-01-15T05:16:13;5.90;99.90
73360;DHT22;63092;43.582;19.528;2023-01-15T05:18:41;5.90;99.90
73360;DHT22;63092;43.582;19.528;2023-01-15T05:21:16;5.90;99.90
73360;DHT22;63092;43.582;19.528;2023-01-15T05:23:43;5.80;99.90
73360;DHT22;63092;43.582;19.528;2023-01-15T05:26:09;5.80;99.90
73360;DHT22;63092;43.582;19.528;2023-01-15T05:28:35;5.80;99.90
73360;DHT22;63092;43.582;19.528;2023-01-15T05:31:27;5.90;99.90
73360;DHT22;63092;43.582;19.528;2023-01-15T05:33:54;5.90;99.90
73360;DHT22;63092;43.582;19.528;2023-01-15T05:36:22;5.90;99.90
73360;DHT22;63092;43.582;19.528;2023-01-15T05:38:48;5.80;99.90
73360;DHT22;63092;43.582;19.528;2023-01-15T05:41:16;5.80;99.90
73360;DHT22;63092;43.582;19.528;2023-01-15T05:44:02;5.90;99.90
73360;DHT22;63092;43.582;19.528;2023-01-15T05:46:28;5.80;99.90
73360;DHT22;63092;43.582;19.528;2023-01-15T05:48:58;5.90;99.90
73360;DHT22;63092;43.582;19.528;2023-01-15T05:51:24;5.80;99.90
73360;DHT22;63092;43.582;19.528;2023-01-15T05:53:49;5.80;99.90
73360;DHT22;63092;43.582;19.528;2023-01-15T05:56:15;5.90;99.90
73360;DHT22;63092;43.582;19.528;2023-01-15T05:58:41;5.90;99.90
73360;DHT22;63092;43.582;19.528;2023-01-15T06:01:07;5.90;99.90
73360;DHT22;63092;43.582;19.528;2023-01-15T06:03:33;5.80;99.90
73360;DHT22;63092;43.582;19.528;2023-01-15T06:05:59;5.80;99.90
73360;DHT22;63092;43.582;19.528;2023-01-15T06:08:24;5.80;99.90
73360;DHT22;63092;43.582;19.528;2023-01-15T06:10:50;5.80;99.90
73360;DHT22;63092;43.582;19.528;2023-01-15T06:13:16;5.80;99.90
73360;DHT22;63092;43.582;19.528;2023-01-15T06:15:43;5.80;99.90
73360;DHT22;63092;43.582;19.528;2023-01-15T06:18:10;5.80;99.90
73360;DHT22;63092;43.582;19.528;2023-01-15T06:20:39;5.80;99.90
73360;DHT22;63092;43.582;19.528;2023-01-15T06:23:05;5.80;99.90
73360;DHT22;63092;43.582;19.528;2023-01-15T06:25:35;5.80;99.90
73360;DHT22;63092;43.582;19.528;2023-01-15T06:28:05;5.80;99.90
73360;DHT22;63092;43.582;19.528;2023-01-15T06:30:31;5.80;99.90
73360;DHT22;63092;43.582;19.528;2023-01-15T06:32:57;5.80;99.90
73360;DHT22;63092;43.582;19.528;2023-01-15T06:35:23;5.70;99.90
73360;DHT22;63092;43.582;19.528;2023-01-15T06:37:49;5.70;99.90
73360;DHT22;63092;43.582;19.528;2023-01-15T06:40:15;5.70;99.90
73360;DHT22;63092;43.582;19.528;2023-01-15T06:42:41;5.70;99.90
73360;DHT22;63092;43.582;19.528;2023-01-15T06:45:25;5.80;99.90
73360;DHT22;63092;43.582;19.528;2023-01-15T06:48:10;5.80;99.90
73360;DHT22;63092;43.582;19.528;2023-01-15T06:50:36;5.80;99.90
73360;DHT22;63092;43.582;19.528;2023-01-15T06:53:01;5.80;99.90
73360;DHT22;63092;43.582;19.528;2023-01-15T06:55:27;5.80;99.90
73360;DHT22;63092;43.582;19.528;2023-01-15T06:57:53;5.90;99.90
73360;DHT22;63092;43.582;19.528;2023-01-15T07:00:18;5.80;99.90
73360;DHT22;63092;43.582;19.528;2023-01-15T07:02:44;5.90;99.90
73360;DHT22;63092;43.582;19.528;2023-01-15T07:05:10;5.90;99.90
73360;DHT22;63092;43.582;19.528;2023-01-15T07:07:35;5.90;99.90
73360;DHT22;63092;43.582;19.528;2023-01-15T07:10:01;6.00;99.90
73360;DHT22;63092;43.582;19.528;2023-01-15T07:12:27;5.90;99.90
73360;DHT22;63092;43.582;19.528;2023-01-15T07:14:53;5.90;99.90
73360;DHT22;63092;43.582;19.528;2023-01-15T07:17:19;5.90;99.90
73360;DHT22;63092;43.582;19.528;2023-01-15T07:19:45;5.80;99.90
73360;DHT22;63092;43.582;19.528;2023-01-15T07:22:11;5.90;99.90
73360;DHT22;63092;43.582;19.528;2023-01-15T07:24:37;5.90;99.90
73360;DHT22;63092;43.582;19.528;2023-01-15T07:27:02;6.00;99.90
73360;DHT22;63092;43.582;19.528;2023-01-15T07:29:28;6.00;99.90
73360;DHT22;63092;43.582;19.528;2023-01-15T07:31:55;6.00;99.90
73360;DHT22;63092;43.582;19.528;2023-01-15T07:34:21;6.10;99.90
73360;DHT22;63092;43.582;19.528;2023-01-15T07:36:47;6.20;99.90
73360;DHT22;63092;43.582;19.528;2023-01-15T07:39:13;6.20;99.90
73360;DHT22;63092;43.582;19.528;2023-01-15T07:41:39;6.20;99.90
73360;DHT22;63092;43.582;19.528;2023-01-15T07:44:23;6.30;99.90
73360;DHT22;63092;43.582;19.528;2023-01-15T07:47:22;6.50;99.90
73360;DHT22;63092;43.582;19.528;2023-01-15T07:50:12;6.50;99.90
73360;DHT22;63092;43.582;19.528;2023-01-15T07:52:38;6.80;99.90
73360;DHT22;63092;43.582;19.528;2023-01-15T07:55:04;6.90;99.90
73360;DHT22;63092;43.582;19.528;2023-01-15T07:57:30;7.10;99.90
73360;DHT22;63092;43.582;19.528;2023-01-15T07:59:56;7.30;99.50
73360;DHT22;63092;43.582;19.528;2023-01-15T08:02:22;7.50;98.80
73360;DHT22;63092;43.582;19.528;2023-01-15T08:04:47;7.50;99.20
73360;DHT22;63092;43.582;19.528;2023-01-15T08:07:14;7.60;97.40
73360;DHT22;63092;43.582;19.528;2023-01-15T08:09:40;7.70;97.10
73360;DHT22;63092;43.582;19.528;2023-01-15T08:12:06;7.70;98.50
73360;DHT22;63092;43.582;19.528;2023-01-15T08:14:50;7.80;97.40
73360;DHT22;63092;43.582;19.528;2023-01-15T08:17:35;8.00;97.10
73360;DHT22;63092;43.582;19.528;2023-01-15T08:20:07;8.00;96.50
73360;DHT22;63092;43.582;19.528;2023-01-15T08:22:34;8.10;95.30
73360;DHT22;63092;43.582;19.528;2023-01-15T08:24:59;7.90;95.40
73360;DHT22;63092;43.582;19.528;2023-01-15T08:27:25;7.80;96.10
73360;DHT22;63092;43.582;19.528;2023-01-15T08:29:52;7.40;95.80
73360;DHT22;63092;43.582;19.528;2023-01-15T08:32:17;7.40;96.40
73360;DHT22;63092;43.582;19.528;2023-01-15T08:34:43;7.30;96.30
73360;DHT22;63092;43.582;19.528;2023-01-15T08:37:09;7.60;96.60
73360;DHT22;63092;43.582;19.528;2023-01-15T08:39:34;7.50;96.30
73360;DHT22;63092;43.582;19.528;2023-01-15T08:42:00;7.10;96.60
73360;DHT22;63092;43.582;19.528;2023-01-15T08:44:26;7.40;97.30
73360;DHT22;63092;43.582;19.528;2023-01-15T08:46:52;7.60;97.30
73360;DHT22;63092;43.582;19.528;2023-01-15T08:49:19;7.80;96.90
73360;DHT22;63092;43.582;19.528;2023-01-15T08:51:45;8.20;94.50
73360;DHT22;63092;43.582;19.528;2023-01-15T08:54:17;8.50;94.00
73360;DHT22;63092;43.582;19.528;2023-01-15T08:56:44;8.50;93.70
73360;DHT22;63092;43.582;19.528;2023-01-15T08:59:10;8.70;92.90
73360;DHT22;63092;43.582;19.528;2023-01-15T09:01:35;8.70;90.50
73360;DHT22;63092;43.582;19.528;2023-01-15T09:04:01;8.70;89.00
73360;DHT22;63092;43.582;19.528;2023-01-15T09:06:27;8.80;87.50
73360;DHT22;63092;43.582;19.528;2023-01-15T09:08:53;8.90;86.20
73360;DHT22;63092;43.582;19.528;2023-01-15T09:11:19;8.80;88.30
73360;DHT22;63092;43.582;19.528;2023-01-15T09:13:44;8.70;90.30
73360;DHT22;63092;43.582;19.528;2023-01-15T09:16:14;8.70;91.00
73360;DHT22;63092;43.582;19.528;2023-01-15T09:18:42;8.50;91.50
73360;DHT22;63092;43.582;19.528;2023-01-15T09:21:08;8.70;89.70
73360;DHT22;63092;43.582;19.528;2023-01-15T09:23:33;8.40;91.50
73360;DHT22;63092;43.582;19.528;2023-01-15T09:26:05;8.50;91.90
73360;DHT22;63092;43.582;19.528;2023-01-15T09:28:32;8.70;91.40
73360;DHT22;63092;43.582;19.528;2023-01-15T09:30:58;8.80;91.80
73360;DHT22;63092;43.582;19.528;2023-01-15T09:33:24;9.00;84.60
73360;DHT22;63092;43.582;19.528;2023-01-15T09:35:51;9.00;86.40
73360;DHT22;63092;43.582;19.528;2023-01-15T09:38:19;9.10;87.20
73360;DHT22;63092;43.582;19.528;2023-01-15T09:41:06;9.10;85.00
73360;DHT22;63092;43.582;19.528;2023-01-15T09:43:45;9.30;83.40
73360;DHT22;63092;43.582;19.528;2023-01-15T09:46:24;9.30;83.80
73360;DHT22;63092;43.582;19.528;2023-01-15T09:49:19;9.10;85.90
73360;DHT22;63092;43.582;19.528;2023-01-15T09:54:58;9.50;83.50
73360;DHT22;63092;43.582;19.528;2023-01-15T09:57:27;9.00;86.20
73360;DHT22;63092;43.582;19.528;2023-01-15T09:59:54;8.30;89.60
73360;DHT22;63092;43.582;19.528;2023-01-15T10:05:22;8.90;90.60
73360;DHT22;63092;43.582;19.528;2023-01-15T10:08:18;8.60;87.70
73360;DHT22;63092;43.582;19.528;2023-01-15T10:10:51;8.40;85.80
73360;DHT22;63092;43.582;19.528;2023-01-15T10:16:28;9.10;85.40
73360;DHT22;63092;43.582;19.528;2023-01-15T10:18:56;9.40;88.40
73360;DHT22;63092;43.582;19.528;2023-01-15T10:22:05;9.30;81.00
73360;DHT22;63092;43.582;19.528;2023-01-15T10:24:37;9.60;81.60
73360;DHT22;63092;43.582;19.528;2023-01-15T10:27:21;9.60;82.00
73360;DHT22;63092;43.582;19.528;2023-01-15T10:30:10;9.70;78.60
73360;DHT22;63092;43.582;19.528;2023-01-15T10:32:44;9.80;79.20
73360;DHT22;63092;43.582;19.528;2023-01-15T10:46:02;9.70;77.40
73360;DHT22;63092;43.582;19.528;2023-01-15T10:48:42;9.80;77.00
73360;DHT22;63092;43.582;19.528;2023-01-15T10:53:50;9.80;76.80
73360;DHT22;63092;43.582;19.528;2023-01-15T10:56:42;9.90;77.70
73360;DHT22;63092;43.582;19.528;2023-01-15T10:59:19;9.70;77.30
73360;DHT22;63092;43.582;19.528;2023-01-15T11:01:48;9.60;77.00
73360;DHT22;63092;43.582;19.528;2023-01-15T11:04:15;9.90;78.00
73360;DHT22;63092;43.582;19.528;2023-01-15T11:06:41;9.90;76.00
73360;DHT22;63092;43.582;19.528;2023-01-15T11:09:18;9.80;77.80
73360;DHT22;63092;43.582;19.528;2023-01-15T11:11:49;10.00;77.10
73360;DHT22;63092;43.582;19.528;2023-01-15T11:14:36;10.20;75.90
73360;DHT22;63092;43.582;19.528;2023-01-15T11:17:23;10.10;75.50
73360;DHT22;63092;43.582;19.528;2023-01-15T11:20:26;10.20;74.60
73360;DHT22;63092;43.582;19.528;2023-01-15T11:22:57;10.50;75.50
73360;DHT22;63092;43.582;19.528;2023-01-15T11:25:31;10.40;73.50
73360;DHT22;63092;43.582;19.528;2023-01-15T11:28:03;10.60;73.70
73360;DHT22;63092;43.582;19.528;2023-01-15T11:30:35;10.60;73.70
73360;DHT22;63092;43.582;19.528;2023-01-15T11:33:15;10.70;74.00
73360;DHT22;63092;43.582;19.528;2023-01-15T11:35:53;10.50;76.20
73360;DHT22;63092;43.582;19.528;2023-01-15T11:38:45;10.50;78.10
73360;DHT22;63092;43.582;19.528;2023-01-15T11:41:30;10.60;77.70
73360;DHT22;63092;43.582;19.528;2023-01-15T11:44:21;10.20;76.60
73360;DHT22;63092;43.582;19.528;2023-01-15T11:47:13;9.70;78.30
73360;DHT22;63092;43.582;19.528;2023-01-15T11:50:00;9.80;79.70
73360;DHT22;63092;43.582;19.528;2023-01-15T11:52:47;9.20;80.60
73360;DHT22;63092;43.582;19.528;2023-01-15T11:55:18;9.20;81.60
73360;DHT22;63092;43.582;19.528;2023-01-15T11:57:44;9.50;81.70
73360;DHT22;63092;43.582;19.528;2023-01-15T12:00:24;9.80;81.60
73360;DHT22;63092;43.582;19.528;2023-01-15T12:02:56;10.00;81.20
73360;DHT22;63092;43.582;19.528;2023-01-15T12:05:28;10.00;81.40
73360;DHT22;63092;43.582;19.528;2023-01-15T12:07:57;10.20;79.40
73360;DHT22;63092;43.582;19.528;2023-01-15T12:10:25;10.20;78.90
73360;DHT22;63092;43.582;19.528;2023-01-15T12:27:08;10.20;77.10
73360;DHT22;63092;43.582;19.528;2023-01-15T12:29:42;10.40;78.10
73360;DHT22;63092;43.582;19.528;2023-01-15T12:32:22;10.50;77.20
73360;DHT22;63092;43.582;19.528;2023-01-15T12:37:22;10.20;76.10
73360;DHT22;63092;43.582;19.528;2023-01-15T12:39:57;10.20;77.60
73360;DHT22;63092;43.582;19.528;2023-01-15T12:42:26;10.00;76.10
73360;DHT22;63092;43.582;19.528;2023-01-15T12:45:17;10.00;76.70
73360;DHT22;63092;43.582;19.528;2023-01-15T12:48:04;9.70;77.00
73360;DHT22;63092;43.582;19.528;2023-01-15T12:55:35;9.70;78.70
73360;DHT22;63092;43.582;19.528;2023-01-15T12:58:07;9.70;80.20
73360;DHT22;63092;43.582;19.528;2023-01-15T13:00:41;9.80;80.20
73360;DHT22;63092;43.582;19.528;2023-01-15T13:06:04;9.80;77.90
73360;DHT22;63092;43.582;19.528;2023-01-15T13:11:11;9.70;80.30
73360;DHT22;63092;43.582;19.528;2023-01-15T13:13:44;9.60;79.60
73360;DHT22;63092;43.582;19.528;2023-01-15T13:19:31;9.50;81.80
73360;DHT22;63092;43.582;19.528;2023-01-15T13:22:02;9.30;83.80
73360;DHT22;63092;43.582;19.528;2023-01-15T13:24:56;9.20;84.20
73360;DHT22;63092;43.582;19.528;2023-01-15T13:33:23;8.70;87.60
73360;DHT22;63092;43.582;19.528;2023-01-15T13:35:55;8.60;88.80
73360;DHT22;63092;43.582;19.528;2023-01-15T13:38:36;8.60;88.80
73360;DHT22;63092;43.582;19.528;2023-01-15T13:41:06;8.60;90.20
73360;DHT22;63092;43.582;19.528;2023-01-15T13:43:42;8.60;88.90
73360;DHT22;63092;43.582;19.528;2023-01-15T13:46:13;8.70;88.90
73360;DHT22;63092;43.582;19.528;2023-01-15T13:48:48;8.70;89.60
73360;DHT22;63092;43.582;19.528;2023-01-15T13:51:32;8.60;90.10
73360;DHT22;63092;43.582;19.528;2023-01-15T13:54:02;8.60;91.10
73360;DHT22;63092;43.582;19.528;2023-01-15T13:56:30;8.50;91.10
73360;DHT22;63092;43.582;19.528;2023-01-15T13:59:01;8.20;92.10
73360;DHT22;63092;43.582;19.528;2023-01-15T14:01:36;8.00;93.00
73360;DHT22;63092;43.582;19.528;2023-01-15T14:06:38;8.00;93.70
73360;DHT22;63092;43.582;19.528;2023-01-15T14:09:04;8.10;93.40
73360;DHT22;63092;43.582;19.528;2023-01-15T14:11:36;8.10;94.00
73360;DHT22;63092;43.582;19.528;2023-01-15T14:17:01;7.90;94.30
73360;DHT22;63092;43.582;19.528;2023-01-15T14:31:19;7.80;95.70
73360;DHT22;63092;43.582;19.528;2023-01-15T14:33:57;7.60;96.30
73360;DHT22;63092;43.582;19.528;2023-01-15T14:36:36;7.40;97.30
73360;DHT22;63092;43.582;19.528;2023-01-15T14:39:04;7.40;97.80
73360;DHT22;63092;43.582;19.528;2023-01-15T14:41:33;7.40;97.80
73360;DHT22;63092;43.582;19.528;2023-01-15T14:44:30;7.40;97.30
73360;DHT22;63092;43.582;19.528;2023-01-15T14:46:59;7.30;97.90
73360;DHT22;63092;43.582;19.528;2023-01-15T14:49:31;7.30;98.10
73360;DHT22;63092;43.582;19.528;2023-01-15T14:51:57;7.30;98.30
73360;DHT22;63092;43.582;19.528;2023-01-15T14:54:24;7.30;98.30
73360;DHT22;63092;43.582;19.528;2023-01-15T14:56:55;7.40;98.40
73360;DHT22;63092;43.582;19.528;2023-01-15T15:02:23;7.30;98.40
73360;DHT22;63092;43.582;19.528;2023-01-15T15:04:52;7.50;98.50
73360;DHT22;63092;43.582;19.528;2023-01-15T15:07:21;7.50;98.40
73360;DHT22;63092;43.582;19.528;2023-01-15T15:09:54;7.50;98.60
73360;DHT22;63092;43.582;19.528;2023-01-15T15:18:03;7.60;98.50
73360;DHT22;63092;43.582;19.528;2023-01-15T15:25:57;7.60;98.80
73360;DHT22;63092;43.582;19.528;2023-01-15T15:28:23;7.60;98.80
73360;DHT22;63092;43.582;19.528;2023-01-15T15:30:49;7.60;98.80
73360;DHT22;63092;43.582;19.528;2023-01-15T15:33:21;7.60;98.90
73360;DHT22;63092;43.582;19.528;2023-01-15T15:35:58;7.50;99.20
73360;DHT22;63092;43.582;19.528;2023-01-15T15:38:25;7.50;98.80
73360;DHT22;63092;43.582;19.528;2023-01-15T15:40:55;7.50;98.80
73360;DHT22;63092;43.582;19.528;2023-01-15T15:43:28;7.60;98.70
73360;DHT22;63092;43.582;19.528;2023-01-15T15:46:32;7.60;98.50
73360;DHT22;63092;43.582;19.528;2023-01-15T15:49:17;7.50;98.80
73360;DHT22;63092;43.582;19.528;2023-01-15T15:51:49;7.40;98.90
73360;DHT22;63092;43.582;19.528;2023-01-15T15:54:23;7.40;98.70
73360;DHT22;63092;43.582;19.528;2023-01-15T15:57:02;7.30;98.70
73360;DHT22;63092;43.582;19.528;2023-01-15T15:59:37;7.30;98.90
73360;DHT22;63092;43.582;19.528;2023-01-15T16:04:52;7.20;99.20
73360;DHT22;63092;43.582;19.528;2023-01-15T16:12:50;7.10;99.50
73360;DHT22;63092;43.582;19.528;2023-01-15T16:15:28;7.10;99.40
73360;DHT22;63092;43.582;19.528;2023-01-15T16:17:59;7.00;99.40
73360;DHT22;63092;43.582;19.528;2023-01-15T16:20:26;7.00;99.50
73360;DHT22;63092;43.582;19.528;2023-01-15T16:23:00;7.00;99.80
73360;DHT22;63092;43.582;19.528;2023-01-15T16:25:39;7.00;99.70
73360;DHT22;63092;43.582;19.528;2023-01-15T16:28:05;6.90;99.50
73360;DHT22;63092;43.582;19.528;2023-01-15T16:30:31;7.00;99.60
73360;DHT22;63092;43.582;19.528;2023-01-15T16:33:04;6.90;99.70
73360;DHT22;63092;43.582;19.528;2023-01-15T16:35:30;6.90;99.80
73360;DHT22;63092;43.582;19.528;2023-01-15T16:38:00;6.90;99.70
73360;DHT22;63092;43.582;19.528;2023-01-15T16:43:16;6.80;99.80
73360;DHT22;63092;43.582;19.528;2023-01-15T16:50:47;6.70;99.50
73360;DHT22;63092;43.582;19.528;2023-01-15T16:53:43;6.70;99.00
73360;DHT22;63092;43.582;19.528;2023-01-15T16:58:55;6.50;99.40
73360;DHT22;63092;43.582;19.528;2023-01-15T17:01:41;6.40;99.80
73360;DHT22;63092;43.582;19.528;2023-01-15T17:04:30;6.40;99.80
73360;DHT22;63092;43.582;19.528;2023-01-15T17:07:15;6.40;99.60
73360;DHT22;63092;43.582;19.528;2023-01-15T17:09:48;6.40;99.50
73360;DHT22;63092;43.582;19.528;2023-01-15T17:14:49;6.20;99.90
73360;DHT22;63092;43.582;19.528;2023-01-15T17:19:47;6.20;99.90
73360;DHT22;63092;43.582;19.528;2023-01-15T17:22:24;6.30;99.80
73360;DHT22;63092;43.582;19.528;2023-01-15T17:24:53;6.30;99.50
73360;DHT22;63092;43.582;19.528;2023-01-15T17:27:19;6.20;99.70
73360;DHT22;63092;43.582;19.528;2023-01-15T17:29:44;6.20;99.50
73360;DHT22;63092;43.582;19.528;2023-01-15T17:32:16;6.20;99.60
73360;DHT22;63092;43.582;19.528;2023-01-15T17:34:43;6.20;99.40
73360;DHT22;63092;43.582;19.528;2023-01-15T17:37:08;6.10;99.40
73360;DHT22;63092;43.582;19.528;2023-01-15T17:39:34;6.10;99.70
73360;DHT22;63092;43.582;19.528;2023-01-15T17:42:00;6.10;99.70
73360;DHT22;63092;43.582;19.528;2023-01-15T17:44:25;6.10;99.40
73360;DHT22;63092;43.582;19.528;2023-01-15T17:46:51;6.00;99.60
73360;DHT22;63092;43.582;19.528;2023-01-15T17:49:17;6.00;99.50
73360;DHT22;63092;43.582;19.528;2023-01-15T17:51:42;5.90;99.90
73360;DHT22;63092;43.582;19.528;2023-01-15T17:54:08;5.90;99.90
73360;DHT22;63092;43.582;19.528;2023-01-15T17:56:34;5.90;99.70
73360;DHT22;63092;43.582;19.528;2023-01-15T17:59:18;5.90;99.60